Time;durP1;ratioP1;P1;durP2;ratioP2;P2;SDS_P1;SDS_P2;PMS_P1;PMS_P2;Temp;Humidity;BMP_temperature;BMP_pressure;BME280_temperature;BME280_humidity;BME280_pressure;Samples;Min_cycle;Max_cycle;Signal;HPM_P1;HPM_P2
2022/01/13 00:02:16;;;;;;;227.98;37.88;;;;;;;;;;5048444;28;20029;-68
2022/01/13 00:04:43;;;;;;;175.95;35.92;;;;;;;;;;5046465;28;20041;-67
2022/01/13 00:07:10;;;;;;;303.35;41.85;;;;;;;;;;5050312;28;20060;-68
2022/01/13 00:09:36;;;;;;;211.07;35.90;;;;;;;;;;5047070;28;20403;-68
2022/01/13 00:12:03;;;;;;;193.70;34.45;;;;;;;;;;5047614;28;20049;-68
2022/01/13 00:22:17;;;;;;;249.10;36.78;;;;;;;;;;5046930;28;20045;-68
2022/01/13 00:24:46;;;;;;;300.45;38.97;;;;;;;;;;5050439;28;20048;-68
2022/01/13 00:27:13;;;;;;;304.13;38.72;;;;;;;;;;5048912;28;20040;-68
2022/01/13 00:29:42;;;;;;;225.48;34.08;;;;;;;;;;5048967;28;20059;-68
2022/01/13 00:32:09;;;;;;;178.75;31.88;;;;;;;;;;5047788;28;20112;-68
2022/01/13 00:34:35;;;;;;;215.55;34.03;;;;;;;;;;5047681;28;20052;-68
2022/01/13 00:37:01;;;;;;;225.95;34.97;;;;;;;;;;5050750;28;20048;-68
2022/01/13 00:39:27;;;;;;;246.77;34.13;;;;;;;;;;5047514;28;20040;-67
2022/01/13 00:41:53;;;;;;;193.82;33.42;;;;;;;;;;5049575;28;20044;-67
2022/01/13 00:44:21;;;;;;;193.13;32.50;;;;;;;;;;5050215;28;20056;-68
2022/01/13 00:46:56;;;;;;;251.48;35.95;;;;;;;;;;5050581;28;20041;-68
2022/01/13 00:49:22;;;;;;;278.33;37.13;;;;;;;;;;5048373;28;20045;-68
2022/01/13 00:51:48;;;;;;;215.10;33.65;;;;;;;;;;5049647;28;20037;-68
2022/01/13 00:54:14;;;;;;;261.08;35.15;;;;;;;;;;5051532;28;20041;-68
2022/01/13 00:56:40;;;;;;;242.50;34.55;;;;;;;;;;5048700;28;20544;-68
2022/01/13 00:59:11;;;;;;;313.95;37.92;;;;;;;;;;5051451;28;20449;-68
2022/01/13 01:01:38;;;;;;;222.65;34.10;;;;;;;;;;5050502;28;20045;-68
2022/01/13 01:04:04;;;;;;;217.55;32.72;;;;;;;;;;5055484;28;20545;-67
2022/01/13 01:06:30;;;;;;;347.42;37.15;;;;;;;;;;5052753;28;20047;-68
2022/01/13 01:08:57;;;;;;;264.35;33.70;;;;;;;;;;5054356;28;20037;-68
2022/01/13 01:11:25;;;;;;;229.35;32.00;;;;;;;;;;5053567;28;20409;-68
2022/01/13 01:13:52;;;;;;;298.88;34.50;;;;;;;;;;5054775;28;20238;-68
2022/01/13 01:16:18;;;;;;;197.05;31.13;;;;;;;;;;5054669;28;20045;-67
2022/01/13 01:28:53;;;;;;;327.55;37.92;;;;;;;;;;5045446;28;20037;-68
2022/01/13 01:31:26;;;;;;;164.00;28.42;;;;;;;;;;5053051;28;20493;-67
2022/01/13 01:34:10;;;;;;;288.63;33.53;;;;;;;;;;5054777;28;20048;-68
2022/01/13 01:36:36;;;;;;;205.70;30.15;;;;;;;;;;5054330;28;20053;-68
2022/01/13 01:39:03;;;;;;;236.50;33.13;;;;;;;;;;5054059;28;20520;-68
2022/01/13 01:41:29;;;;;;;200.40;29.88;;;;;;;;;;5052804;28;20036;-67
2022/01/13 01:44:01;;;;;;;254.20;31.05;;;;;;;;;;5054792;28;20386;-68
2022/01/13 01:46:27;;;;;;;;;;;;;;;;;;5054413;28;20079;-68
2022/01/13 01:48:53;;;;;;;254.25;31.95;;;;;;;;;;5054714;28;19917;-67
2022/01/13 01:51:19;;;;;;;235.10;29.65;;;;;;;;;;5052761;28;20067;-67
2022/01/13 01:53:45;;;;;;;193.25;28.55;;;;;;;;;;5049487;28;20041;-68
2022/01/13 01:56:11;;;;;;;198.18;28.13;;;;;;;;;;5047716;28;20379;-68
2022/01/13 01:58:39;;;;;;;183.10;27.55;;;;;;;;;;5054383;28;20490;-68
2022/01/13 02:01:05;;;;;;;190.70;27.67;;;;;;;;;;5052385;28;20037;-67
2022/01/13 02:03:31;;;;;;;191.02;26.75;;;;;;;;;;5054569;28;20509;-68
2022/01/13 02:05:57;;;;;;;175.98;26.92;;;;;;;;;;5052629;28;20120;-68
2022/01/13 02:08:23;;;;;;;158.63;25.23;;;;;;;;;;5051561;28;20098;-68
2022/01/13 02:10:49;;;;;;;168.30;25.00;;;;;;;;;;5052371;28;20037;-68
2022/01/13 02:13:21;;;;;;;222.20;28.42;;;;;;;;;;5052893;28;20033;-68
2022/01/13 02:16:00;;;;;;;199.88;25.65;;;;;;;;;;5054099;28;20106;-68
2022/01/13 02:18:28;;;;;;;216.18;27.13;;;;;;;;;;5052880;28;20056;-67
2022/01/13 02:20:54;;;;;;;193.50;25.90;;;;;;;;;;5050991;28;20501;-68
2022/01/13 02:23:47;;;;;;;190.38;25.52;;;;;;;;;;5052045;28;20052;-67
2022/01/13 02:26:14;;;;;;;166.05;24.98;;;;;;;;;;5050862;28;20049;-68
2022/01/13 02:28:41;;;;;;;197.32;26.65;;;;;;;;;;5054114;28;20037;-68
2022/01/13 02:31:07;;;;;;;190.82;25.38;;;;;;;;;;5051690;28;20033;-67
2022/01/13 02:33:35;;;;;;;166.00;23.63;;;;;;;;;;5053588;28;20068;-68
2022/01/13 02:36:01;;;;;;;174.02;23.63;;;;;;;;;;5052606;28;20048;-68
2022/01/13 02:38:27;;;;;;;134.05;20.83;;;;;;;;;;5052311;28;20384;-68
2022/01/13 02:40:54;;;;;;;200.80;24.58;;;;;;;;;;5051331;28;20029;-68
2022/01/13 02:43:20;;;;;;;158.35;23.00;;;;;;;;;;5053484;28;20049;-68
2022/01/13 02:46:03;;;;;;;180.50;23.83;;;;;;;;;;5053095;28;20119;-68
2022/01/13 02:48:30;;;;;;;185.18;25.65;;;;;;;;;;5053817;28;20045;-68
2022/01/13 02:50:56;;;;;;;175.38;24.88;;;;;;;;;;5045726;28;20038;-68
2022/01/13 02:53:23;;;;;;;159.45;22.70;;;;;;;;;;5050726;28;20110;-68
2022/01/13 02:55:49;;;;;;;159.98;23.45;;;;;;;;;;5052455;28;20095;-67
2022/01/13 02:58:15;;;;;;;213.07;27.40;;;;;;;;;;5053229;28;20041;-68
2022/01/13 03:00:42;;;;;;;233.57;25.27;;;;;;;;;;5032124;28;20128;-68
2022/01/13 03:03:07;;;;;;;133.35;19.75;;;;;;;;;;5038107;28;20487;-68
2022/01/13 03:05:37;;;;;;;210.38;24.60;;;;;;;;;;5034273;28;20112;-68
2022/01/13 03:08:03;;;;;;;187.70;23.08;;;;;;;;;;5041317;28;20038;-68
2022/01/13 03:10:30;;;;;;;186.55;23.77;;;;;;;;;;5051602;28;20029;-67
2022/01/13 03:12:57;;;;;;;184.48;24.45;;;;;;;;;;5052733;28;20110;-68
2022/01/13 03:15:23;;;;;;;178.27;23.27;;;;;;;;;;5052374;28;20100;-68
2022/01/13 03:17:49;;;;;;;182.77;23.98;;;;;;;;;;5052541;28;20487;-68
2022/01/13 03:20:15;;;;;;;159.68;21.88;;;;;;;;;;5050868;28;20812;-68
2022/01/13 03:22:41;;;;;;;153.57;21.52;;;;;;;;;;5052119;28;20429;-68
2022/01/13 03:25:09;;;;;;;161.07;22.80;;;;;;;;;;5051882;28;20069;-68
2022/01/13 03:27:35;;;;;;;130.68;20.98;;;;;;;;;;5052308;28;20513;-67
2022/01/13 03:30:08;;;;;;;177.27;22.45;;;;;;;;;;5051347;28;20033;-68
2022/01/13 03:32:35;;;;;;;178.38;24.30;;;;;;;;;;5048932;28;20033;-68
2022/01/13 03:35:01;;;;;;;186.15;23.58;;;;;;;;;;5051717;28;20036;-68
2022/01/13 03:37:27;;;;;;;211.20;25.60;;;;;;;;;;5033528;28;20037;-67
2022/01/13 03:39:53;;;;;;;141.70;22.30;;;;;;;;;;5041627;28;20406;-68
2022/01/13 03:42:19;;;;;;;180.30;24.10;;;;;;;;;;5051622;28;20045;-67
2022/01/13 03:44:45;;;;;;;157.02;21.13;;;;;;;;;;5051916;28;20051;-68
2022/01/13 03:47:13;;;;;;;167.40;22.40;;;;;;;;;;5050701;28;20414;-68
2022/01/13 03:49:39;;;;;;;141.77;19.90;;;;;;;;;;5050725;28;20048;-68
2022/01/13 03:52:14;;;;;;;175.20;22.65;;;;;;;;;;5051406;28;20067;-68
2022/01/13 03:54:40;;;;;;;176.95;22.77;;;;;;;;;;5051799;28;20045;-68
2022/01/13 03:57:46;;;;;;;119.38;20.00;;;;;;;;;;5051869;28;20045;-68
2022/01/13 04:00:38;;;;;;;133.82;19.52;;;;;;;;;;5007617;28;20050;-67
2022/01/13 04:03:04;;;;;;;131.95;19.52;;;;;;;;;;5002718;28;20053;-67
2022/01/13 04:05:30;;;;;;;137.95;20.13;;;;;;;;;;5035786;28;20040;-67
2022/01/13 04:07:56;;;;;;;137.40;20.50;;;;;;;;;;5051829;28;20154;-67
2022/01/13 04:10:41;;;;;;;133.70;20.25;;;;;;;;;;5046958;28;20120;-67
2022/01/13 04:13:21;;;;;;;115.57;18.88;;;;;;;;;;5044285;28;20132;-67
2022/01/13 04:15:47;;;;;;;115.43;19.08;;;;;;;;;;5049151;28;20048;-67
2022/01/13 04:18:13;;;;;;;111.93;18.23;;;;;;;;;;5051154;28;20501;-67
2022/01/13 04:20:39;;;;;;;142.45;21.30;;;;;;;;;;5049742;28;20037;-67
2022/01/13 04:23:05;;;;;;;92.72;17.42;;;;;;;;;;5051754;28;20068;-67
2022/01/13 04:25:34;;;;;;;111.18;19.63;;;;;;;;;;5051012;28;20037;-67
2022/01/13 04:28:02;;;;;;;84.60;16.60;;;;;;;;;;5051427;28;20131;-67
2022/01/13 04:33:07;;;;;;;121.15;18.98;;;;;;;;;;5048358;28;20048;-67
2022/01/13 04:35:33;;;;;;;127.25;20.48;;;;;;;;;;5036685;28;20076;-67
2022/01/13 04:37:59;;;;;;;97.05;17.45;;;;;;;;;;5051585;28;20520;-67
2022/01/13 04:40:26;;;;;;;110.05;18.95;;;;;;;;;;5049432;28;20037;-67
2022/01/13 04:42:55;;;;;;;120.30;18.65;;;;;;;;;;5050940;28;20098;-67
2022/01/13 04:45:21;;;;;;;95.97;18.13;;;;;;;;;;5050766;28;20112;-67
2022/01/13 04:47:48;;;;;;;87.70;17.17;;;;;;;;;;5051520;28;20044;-67
2022/01/13 04:50:14;;;;;;;106.43;18.90;;;;;;;;;;5041530;28;20033;-67
2022/01/13 04:52:40;;;;;;;86.88;17.13;;;;;;;;;;5050743;28;20151;-67
2022/01/13 04:55:10;;;;;;;111.55;17.85;;;;;;;;;;5051164;28;20091;-68
2022/01/13 04:57:37;;;;;;;119.90;18.27;;;;;;;;;;5051029;28;20116;-67
2022/01/13 05:00:07;;;;;;;95.85;17.45;;;;;;;;;;5049694;28;20468;-67
2022/01/13 05:02:33;;;;;;;104.47;18.65;;;;;;;;;;5047410;28;20103;-67
2022/01/13 05:04:59;;;;;;;102.10;18.42;;;;;;;;;;5049401;28;20506;-67
2022/01/13 05:07:25;;;;;;;94.32;19.05;;;;;;;;;;5048605;28;20474;-67
2022/01/13 05:09:51;;;;;;;93.13;18.38;;;;;;;;;;5050028;28;20072;-67
2022/01/13 05:12:17;;;;;;;103.95;19.23;;;;;;;;;;5050486;28;20083;-67
2022/01/13 05:14:47;;;;;;;97.80;18.83;;;;;;;;;;5050587;28;20502;-67
2022/01/13 05:17:34;;;;;;;74.55;15.52;;;;;;;;;;5073000;22;20103;-70
2022/01/13 05:20:13;;;;;;;85.53;17.98;;;;;;;;;;5056788;28;20115;-70
2022/01/13 05:22:39;;;;;;;67.57;16.38;;;;;;;;;;5065622;28;20044;-70
2022/01/13 05:25:06;;;;;;;96.85;17.92;;;;;;;;;;5071131;28;20049;-69
2022/01/13 05:27:32;;;;;;;77.38;16.92;;;;;;;;;;5068049;28;20028;-69
2022/01/13 05:30:01;;;;;;;87.28;17.58;;;;;;;;;;5069953;28;20024;-69
2022/01/13 05:32:27;;;;;;;64.32;14.98;;;;;;;;;;5067461;28;20258;-70
2022/01/13 05:34:53;;;;;;;90.28;17.05;;;;;;;;;;5068012;28;20148;-70
2022/01/13 05:37:19;;;;;;;82.05;16.95;;;;;;;;;;5064665;28;20032;-70
2022/01/13 05:39:44;;;;;;;89.50;17.15;;;;;;;;;;5066163;28;20040;-70
2022/01/13 05:42:10;;;;;;;86.38;17.40;;;;;;;;;;5068975;28;20032;-69
2022/01/13 05:44:38;;;;;;;69.88;14.68;;;;;;;;;;5070452;28;20037;-69
2022/01/13 05:47:09;;;;;;;78.50;16.38;;;;;;;;;;5067765;28;20044;-70
2022/01/13 05:49:35;;;;;;;69.53;15.18;;;;;;;;;;5071649;28;20047;-70
2022/01/13 05:52:01;;;;;;;72.65;15.07;;;;;;;;;;5077678;28;20028;-70
2022/01/13 05:54:27;;;;;;;63.15;15.30;;;;;;;;;;5072960;28;20385;-70
2022/01/13 05:56:53;;;;;;;72.40;16.25;;;;;;;;;;5071991;28;20072;-69
2022/01/13 05:59:21;;;;;;;77.15;15.88;;;;;;;;;;5062984;28;20141;-70
2022/01/13 06:01:47;;;;;;;75.90;17.23;;;;;;;;;;5075387;28;20062;-70
2022/01/13 06:04:13;;;;;;;77.65;17.05;;;;;;;;;;5058032;28;20489;-70
2022/01/13 06:06:38;;;;;;;84.43;18.10;;;;;;;;;;5065266;28;20544;-70
2022/01/13 06:09:04;;;;;;;100.13;19.42;;;;;;;;;;5073795;28;20119;-70
2022/01/13 06:11:38;;;;;;;70.95;15.20;;;;;;;;;;5076854;28;20033;-70
2022/01/13 06:14:04;;;;;;;107.70;20.05;;;;;;;;;;5063807;28;20079;-70
2022/01/13 06:16:30;;;;;;;102.95;18.33;;;;;;;;;;5073276;28;20032;-69
2022/01/13 06:18:56;;;;;;;86.40;17.65;;;;;;;;;;5074141;28;20037;-70
2022/01/13 06:21:22;;;;;;;93.22;18.25;;;;;;;;;;5076717;28;20371;-70
2022/01/13 06:23:48;;;;;;;117.22;19.35;;;;;;;;;;5073193;28;20037;-70
2022/01/13 06:26:14;;;;;;;120.32;19.25;;;;;;;;;;5073656;28;20071;-69
2022/01/13 06:28:40;;;;;;;99.60;19.90;;;;;;;;;;5056150;28;20119;-70
2022/01/13 06:31:06;;;;;;;99.45;18.75;;;;;;;;;;5076510;28;20460;-70
2022/01/13 06:33:32;;;;;;;79.43;16.65;;;;;;;;;;5062110;28;20450;-69
2022/01/13 06:35:58;;;;;;;103.90;20.33;;;;;;;;;;5053875;28;20049;-70
2022/01/13 06:38:24;;;;;;;78.82;17.55;;;;;;;;;;5071343;28;20059;-70
2022/01/13 06:40:51;;;;;;;83.18;17.20;;;;;;;;;;5075386;28;20481;-70
2022/01/13 06:43:18;;;;;;;89.72;17.63;;;;;;;;;;5066397;28;20041;-70
2022/01/13 06:45:44;;;;;;;77.05;16.55;;;;;;;;;;5073564;28;20409;-70
2022/01/13 06:48:10;;;;;;;83.53;17.23;;;;;;;;;;5073475;28;20044;-70
2022/01/13 06:50:36;;;;;;;77.13;17.25;;;;;;;;;;5075480;28;20044;-70
2022/01/13 06:53:03;;;;;;;100.07;17.67;;;;;;;;;;5073329;28;20383;-70
2022/01/13 06:55:29;;;;;;;84.63;17.38;;;;;;;;;;5073398;28;20044;-69
2022/01/13 06:57:55;;;;;;;79.38;16.90;;;;;;;;;;5072538;28;20455;-69
2022/01/13 07:00:22;;;;;;;80.97;15.63;;;;;;;;;;5073753;28;20068;-70
2022/01/13 07:02:48;;;;;;;87.95;17.08;;;;;;;;;;5069077;28;20056;-70
2022/01/13 07:05:15;;;;;;;84.70;17.60;;;;;;;;;;5072403;28;20028;-70
2022/01/13 07:07:41;;;;;;;93.95;18.65;;;;;;;;;;5072479;28;20044;-69
2022/01/13 07:10:08;;;;;;;88.10;16.98;;;;;;;;;;5071535;28;20086;-69
2022/01/13 07:12:34;;;;;;;89.63;17.60;;;;;;;;;;5071240;28;20064;-69
2022/01/13 07:15:00;;;;;;;97.57;19.30;;;;;;;;;;5072528;28;20041;-70
2022/01/13 07:17:26;;;;;;;112.70;18.75;;;;;;;;;;5072390;28;20119;-69
2022/01/13 07:19:52;;;;;;;95.22;20.58;;;;;;;;;;5072197;28;20482;-69
2022/01/13 07:22:18;;;;;;;105.93;20.17;;;;;;;;;;5048461;28;20036;-70
2022/01/13 07:24:46;;;;;;;100.22;19.00;;;;;;;;;;5053207;28;20367;-69
2022/01/13 07:27:12;;;;;;;89.50;18.13;;;;;;;;;;5061922;28;20037;-70
2022/01/13 07:29:39;;;;;;;96.97;17.05;;;;;;;;;;5071384;28;20040;-70
2022/01/13 07:32:06;;;;;;;119.78;20.38;;;;;;;;;;5074594;28;20037;-70
2022/01/13 07:34:32;;;;;;;157.68;23.13;;;;;;;;;;5072820;28;20067;-70
2022/01/13 07:36:58;;;;;;;88.25;17.20;;;;;;;;;;5071947;28;20409;-70
2022/01/13 07:39:24;;;;;;;100.15;18.10;;;;;;;;;;5071957;28;20052;-70
2022/01/13 07:41:50;;;;;;;92.75;18.73;;;;;;;;;;5074049;28;20525;-71
2022/01/13 07:44:18;;;;;;;143.73;22.90;;;;;;;;;;5072079;28;20050;-71
2022/01/13 07:46:44;;;;;;;109.03;18.42;;;;;;;;;;5072065;28;20078;-71
2022/01/13 07:49:10;;;;;;;90.55;19.25;;;;;;;;;;5072212;28;20071;-71
2022/01/13 07:51:36;;;;;;;124.13;19.98;;;;;;;;;;5072497;28;20072;-71
2022/01/13 07:54:02;;;;;;;102.57;18.67;;;;;;;;;;5071710;28;20063;-70
2022/01/13 07:56:28;;;;;;;116.10;19.80;;;;;;;;;;5068167;28;20094;-71
2022/01/13 07:58:54;;;;;;;103.60;19.02;;;;;;;;;;5069579;28;20075;-70
2022/01/13 08:01:20;;;;;;;96.03;19.38;;;;;;;;;;5071883;28;20040;-71
2022/01/13 08:03:46;;;;;;;101.45;19.90;;;;;;;;;;5071766;28;20166;-71
2022/01/13 08:06:12;;;;;;;107.05;19.30;;;;;;;;;;5071136;28;20111;-71
2022/01/13 08:08:38;;;;;;;137.48;22.17;;;;;;;;;;5072246;28;20440;-71
2022/01/13 08:11:05;;;;;;;93.53;17.42;;;;;;;;;;5069571;28;20040;-71
2022/01/13 08:13:31;;;;;;;110.82;20.30;;;;;;;;;;5068713;28;20072;-71
2022/01/13 08:16:00;;;;;;;91.38;19.20;;;;;;;;;;5071496;28;20037;-71
2022/01/13 08:21:11;;;;;;;95.32;19.48;;;;;;;;;;5067209;28;20094;-71
2022/01/13 08:23:37;;;;;;;109.18;19.60;;;;;;;;;;5068295;28;20119;-71
2022/01/13 08:26:03;;;;;;;98.57;19.42;;;;;;;;;;5067727;28;20036;-71
2022/01/13 08:28:30;;;;;;;99.20;20.70;;;;;;;;;;5077015;28;20039;-71
2022/01/13 08:30:59;;;;;;;103.55;20.02;;;;;;;;;;5069659;28;20039;-71
2022/01/13 08:33:26;;;;;;;87.35;19.00;;;;;;;;;;5069313;28;20116;-71
2022/01/13 08:35:52;;;;;;;111.03;20.55;;;;;;;;;;5071019;28;20051;-71
2022/01/13 08:38:19;;;;;;;119.97;20.35;;;;;;;;;;5071220;28;20040;-71
2022/01/13 08:40:46;;;;;;;98.65;19.33;;;;;;;;;;5063682;28;20040;-71
2022/01/13 08:43:12;;;;;;;79.60;17.15;;;;;;;;;;5070744;28;20041;-71
2022/01/13 08:45:38;;;;;;;79.85;17.38;;;;;;;;;;5071211;28;20120;-70
2022/01/13 08:48:05;;;;;;;71.88;16.70;;;;;;;;;;5071784;28;20496;-70
2022/01/13 08:50:31;;;;;;;92.55;17.15;;;;;;;;;;5065978;28;20029;-71
2022/01/13 08:52:56;;;;;;;78.53;16.40;;;;;;;;;;5069236;28;20111;-71
2022/01/13 08:55:22;;;;;;;86.55;19.88;;;;;;;;;;5071203;28;20067;-71
2022/01/13 08:57:48;;;;;;;94.50;20.70;;;;;;;;;;5071134;28;20032;-71
2022/01/13 09:00:15;;;;;;;77.57;16.38;;;;;;;;;;5069143;28;20037;-71
2022/01/13 09:02:42;;;;;;;75.88;17.30;;;;;;;;;;5072370;28;20043;-71
2022/01/13 09:05:08;;;;;;;82.20;18.13;;;;;;;;;;5070975;28;20033;-70
2022/01/13 09:07:33;;;;;;;89.05;19.15;;;;;;;;;;5068143;28;20064;-70
2022/01/13 09:09:59;;;;;;;93.95;18.98;;;;;;;;;;5068914;28;20079;-70
2022/01/13 09:12:26;;;;;;;93.55;18.75;;;;;;;;;;5073657;28;20024;-71
2022/01/13 09:14:58;;;;;;;88.63;18.17;;;;;;;;;;5069764;28;20040;-71
2022/01/13 09:17:24;;;;;;;77.43;17.88;;;;;;;;;;5070711;28;20123;-70
2022/01/13 09:19:51;;;;;;;102.63;19.90;;;;;;;;;;5069783;28;20041;-70
2022/01/13 09:22:18;;;;;;;87.00;18.48;;;;;;;;;;5072280;28;20036;-70
2022/01/13 09:24:44;;;;;;;88.45;18.50;;;;;;;;;;5074038;28;20070;-70
2022/01/13 09:27:10;;;;;;;91.63;18.17;;;;;;;;;;5073485;28;20071;-70
2022/01/13 09:29:36;;;;;;;84.20;17.77;;;;;;;;;;5071122;28;20067;-71
2022/01/13 09:32:02;;;;;;;72.97;16.90;;;;;;;;;;5052204;28;20047;-70
2022/01/13 09:34:28;;;;;;;75.22;16.98;;;;;;;;;;5073383;28;20043;-70
2022/01/13 09:36:54;;;;;;;89.90;18.42;;;;;;;;;;5074003;28;20044;-70
2022/01/13 09:39:20;;;;;;;88.50;18.10;;;;;;;;;;5074124;28;20097;-71
2022/01/13 09:41:47;;;;;;;92.22;19.42;;;;;;;;;;5071068;28;20048;-71
2022/01/13 09:44:13;;;;;;;99.25;20.15;;;;;;;;;;5069472;28;20041;-70
2022/01/13 09:46:39;;;;;;;95.40;19.65;;;;;;;;;;5068032;28;20495;-70
2022/01/13 09:49:07;;;;;;;105.60;18.77;;;;;;;;;;5071319;28;20036;-71
2022/01/13 09:51:34;;;;;;;110.53;19.85;;;;;;;;;;5073546;28;20094;-71
2022/01/13 09:54:00;;;;;;;98.05;20.00;;;;;;;;;;5074298;28;20041;-71
2022/01/13 09:56:26;;;;;;;106.28;20.67;;;;;;;;;;5073055;28;20120;-71
2022/01/13 09:58:52;;;;;;;109.25;20.48;;;;;;;;;;5054931;28;20150;-71
2022/01/13 10:01:18;;;;;;;99.22;19.65;;;;;;;;;;5075908;28;20067;-70
2022/01/13 10:03:44;;;;;;;92.57;19.27;;;;;;;;;;5069823;28;20048;-71
2022/01/13 10:06:12;;;;;;;108.65;21.83;;;;;;;;;;5072744;28;20082;-71
2022/01/13 10:08:43;;;;;;;97.88;19.95;;;;;;;;;;5072196;28;20035;-70
2022/01/13 10:11:27;;;;;;;128.50;21.88;;;;;;;;;;5064848;28;20029;-70
2022/01/13 10:16:57;;;;;;;97.78;19.10;;;;;;;;;;5059272;28;20044;-70
2022/01/13 10:19:42;;;;;;;115.22;21.80;;;;;;;;;;5063132;28;20383;-69
2022/01/13 10:22:12;;;;;;;100.97;20.67;;;;;;;;;;5075887;28;20051;-69
2022/01/13 10:25:02;;;;;;;111.13;20.05;;;;;;;;;;5071266;28;20040;-70
2022/01/13 10:27:37;;;;;;;101.22;19.77;;;;;;;;;;5078063;28;20036;-69
2022/01/13 10:30:16;;;;;;;99.30;21.10;;;;;;;;;;5072916;28;20116;-69
2022/01/13 10:32:43;;;;;;;104.70;19.38;;;;;;;;;;5071075;28;20036;-69
2022/01/13 10:35:14;;;;;;;108.25;20.13;;;;;;;;;;5072428;28;20617;-70
2022/01/13 10:37:44;;;;;;;87.32;18.42;;;;;;;;;;5072841;28;20140;-70
2022/01/13 10:40:12;;;;;;;101.90;20.60;;;;;;;;;;5070876;28;20067;-69
2022/01/13 10:45:26;;;;;;;112.28;20.55;;;;;;;;;;5068991;28;20094;-69
2022/01/13 10:47:56;;;;;;;109.57;21.35;;;;;;;;;;5069784;28;20063;-69
2022/01/13 10:50:26;;;;;;;110.60;20.17;;;;;;;;;;5062555;28;20048;-69
2022/01/13 10:52:52;;;;;;;113.43;20.70;;;;;;;;;;5065389;28;20047;-69
2022/01/13 10:55:21;;;;;;;103.53;20.60;;;;;;;;;;5065241;28;20044;-69
2022/01/13 10:57:47;;;;;;;91.20;20.17;;;;;;;;;;5070567;28;20037;-69
2022/01/13 11:00:23;;;;;;;122.38;21.50;;;;;;;;;;5071548;28;20120;-69
2022/01/13 11:03:01;;;;;;;105.20;20.25;;;;;;;;;;5062254;28;20046;-69
2022/01/13 11:05:28;;;;;;;91.97;19.70;;;;;;;;;;5059881;28;20040;-70
2022/01/13 11:07:54;;;;;;;95.30;20.33;;;;;;;;;;5071453;28;20040;-69
2022/01/13 11:10:21;;;;;;;93.13;18.50;;;;;;;;;;5072921;28;20029;-69
2022/01/13 11:12:55;;;;;;;100.47;19.90;;;;;;;;;;5073346;28;20048;-69
2022/01/13 11:15:21;;;;;;;100.07;19.08;;;;;;;;;;5072076;28;20072;-69
2022/01/13 11:17:49;;;;;;;89.15;19.58;;;;;;;;;;5093369;22;20101;-69
2022/01/13 11:20:17;;;;;;;70.88;16.02;;;;;;;;;;5085178;28;20149;-69
2022/01/13 11:22:44;;;;;;;90.25;20.02;;;;;;;;;;5083368;28;20039;-68
2022/01/13 11:25:11;;;;;;;97.32;19.17;;;;;;;;;;5077729;28;20156;-68
2022/01/13 11:27:38;;;;;;;99.10;19.35;;;;;;;;;;5076183;28;20033;-69
2022/01/13 11:30:06;;;;;;;90.97;20.08;;;;;;;;;;5077195;28;20085;-68
2022/01/13 11:32:32;;;;;;;73.15;18.02;;;;;;;;;;5079791;28;20312;-68
2022/01/13 11:34:58;;;;;;;80.22;18.63;;;;;;;;;;5068598;28;20037;-67
2022/01/13 11:37:28;;;;;;;75.65;18.17;;;;;;;;;;5060051;28;20029;-68
2022/01/13 11:39:54;;;;;;;93.97;20.50;;;;;;;;;;5073869;28;20101;-67
2022/01/13 11:42:20;;;;;;;80.10;18.30;;;;;;;;;;5074652;28;20559;-67
2022/01/13 11:45:06;;;;;;;92.30;20.45;;;;;;;;;;5052537;28;20045;-68
2022/01/13 11:47:32;;;;;;;79.35;18.17;;;;;;;;;;5071323;28;20051;-67
2022/01/13 11:50:16;;;;;;;69.10;18.60;;;;;;;;;;5071108;28;20028;-68
2022/01/13 11:52:44;;;;;;;80.10;19.10;;;;;;;;;;5070120;28;20119;-67
2022/01/13 11:55:20;;;;;;;72.00;17.58;;;;;;;;;;5071945;28;20036;-67
2022/01/13 11:57:47;;;;;;;80.53;19.15;;;;;;;;;;5052411;28;20045;-67
2022/01/13 12:00:22;;;;;;;78.97;19.38;;;;;;;;;;5060189;28;20045;-68
2022/01/13 12:02:48;;;;;;;91.25;22.02;;;;;;;;;;5072181;28;20113;-68
2022/01/13 12:05:17;;;;;;;83.97;19.33;;;;;;;;;;5071341;28;20075;-67
2022/01/13 12:07:45;;;;;;;86.13;20.50;;;;;;;;;;5072258;28;20075;-67
2022/01/13 12:10:29;;;;;;;81.07;20.75;;;;;;;;;;5072544;28;20085;-67
2022/01/13 12:12:55;;;;;;;83.63;19.58;;;;;;;;;;5072382;28;20115;-67
2022/01/13 12:15:21;;;;;;;88.32;20.25;;;;;;;;;;5071630;28;20048;-67
2022/01/13 12:17:52;;;;;;;83.60;19.67;;;;;;;;;;5072059;28;20413;-67
2022/01/13 12:20:22;;;;;;;71.32;19.98;;;;;;;;;;5073107;28;20036;-67
2022/01/13 12:23:01;;;;;;;84.93;19.95;;;;;;;;;;5073319;28;20041;-68
2022/01/13 12:25:31;;;;;;;78.80;19.95;;;;;;;;;;5070965;28;20612;-67
2022/01/13 12:27:59;;;;;;;82.95;20.05;;;;;;;;;;5071519;28;20490;-67
2022/01/13 12:30:29;;;;;;;78.68;19.70;;;;;;;;;;5072512;28;20028;-67
2022/01/13 12:32:55;;;;;;;77.50;18.95;;;;;;;;;;5072350;28;20041;-67
2022/01/13 12:35:31;;;;;;;77.70;20.20;;;;;;;;;;5070990;28;20405;-67
2022/01/13 12:38:02;;;;;;;74.00;16.80;;;;;;;;;;5071293;28;20037;-68
2022/01/13 12:40:30;;;;;;;68.40;17.15;;;;;;;;;;5073515;28;20032;-68
2022/01/13 12:42:56;;;;;;;62.05;17.60;;;;;;;;;;5071987;28;20067;-68
2022/01/13 12:45:28;;;;;;;67.20;19.88;;;;;;;;;;5072183;28;20075;-67
2022/01/13 12:48:08;;;;;;;80.90;19.17;;;;;;;;;;5090711;28;20043;-67
2022/01/13 12:50:48;;;;;;;75.63;19.40;;;;;;;;;;5084544;28;20066;-67
2022/01/13 12:53:14;;;;;;;70.03;19.65;;;;;;;;;;5071797;28;20406;-67
2022/01/13 12:55:41;;;;;;;69.70;19.25;;;;;;;;;;5072373;28;20115;-67
2022/01/13 12:58:08;;;;;;;67.45;16.77;;;;;;;;;;5074414;28;20044;-67
2022/01/13 13:00:34;;;;;;;74.65;19.48;;;;;;;;;;5081748;28;20059;-67
2022/01/13 13:03:07;;;;;;;68.43;20.13;;;;;;;;;;5075293;28;20041;-67
2022/01/13 13:05:41;;;;;;;60.60;18.65;;;;;;;;;;5077190;28;20044;-68
2022/01/13 13:08:08;;;;;;;73.03;18.95;;;;;;;;;;5095934;28;20058;-67
2022/01/13 13:10:35;;;;;;;70.00;19.73;;;;;;;;;;5088418;28;20050;-68
2022/01/13 13:13:01;;;;;;;62.25;18.98;;;;;;;;;;5074420;28;20032;-67
2022/01/13 13:17:54;;;;;;;74.18;21.52;;;;;;;;;;5075342;28;20688;-67
2022/01/13 13:20:25;;;;;;;73.05;20.63;;;;;;;;;;5079805;28;20055;-67
2022/01/13 13:22:53;;;;;;;71.60;19.47;;;;;;;;;;5076409;28;20046;-67
2022/01/13 13:25:28;;;;;;;80.03;20.77;;;;;;;;;;5074640;28;20049;-68
2022/01/13 13:27:54;;;;;;;75.63;20.15;;;;;;;;;;5071749;28;20036;-67
2022/01/13 13:30:20;;;;;;;68.38;18.77;;;;;;;;;;5076589;28;20115;-68
2022/01/13 13:32:50;;;;;;;75.57;20.73;;;;;;;;;;5076579;28;20060;-67
2022/01/13 13:35:17;;;;;;;91.38;23.10;;;;;;;;;;5074854;28;20098;-67
2022/01/13 13:37:44;;;;;;;79.97;21.17;;;;;;;;;;5075071;28;20044;-67
2022/01/13 13:40:20;;;;;;;81.63;21.65;;;;;;;;;;5075677;28;20542;-67
2022/01/13 13:42:58;;;;;;;76.40;20.55;;;;;;;;;;5076448;28;20071;-67
2022/01/13 13:45:24;;;;;;;92.75;22.42;;;;;;;;;;5074500;28;20041;-67
2022/01/13 13:47:56;;;;;;;88.18;21.98;;;;;;;;;;5095169;28;20040;-67
2022/01/13 13:50:23;;;;;;;88.70;23.23;;;;;;;;;;5086513;28;20064;-67
2022/01/13 13:53:05;;;;;;;87.10;23.48;;;;;;;;;;5074559;28;20402;-68
2022/01/13 13:55:31;;;;;;;;;;;;;;;;;;5075222;28;20036;-67
2022/01/13 13:57:57;;;;;;;80.10;20.73;;;;;;;;;;5074474;28;19924;-67
2022/01/13 14:00:26;;;;;;;87.35;23.38;;;;;;;;;;5077135;28;20145;-68
2022/01/13 14:02:53;;;;;;;80.55;22.48;;;;;;;;;;5074915;28;20072;-68
2022/01/13 14:05:24;;;;;;;88.97;23.10;;;;;;;;;;5074704;28;20041;-67
2022/01/13 14:07:50;;;;;;;78.67;22.50;;;;;;;;;;5091908;28;20397;-67
2022/01/13 14:10:18;;;;;;;85.78;23.85;;;;;;;;;;5087935;28;20044;-67
2022/01/13 14:12:44;;;;;;;85.45;22.30;;;;;;;;;;5076206;28;20194;-67
2022/01/13 14:15:37;;;;;;;92.35;24.23;;;;;;;;;;5074278;28;20040;-67
2022/01/13 14:18:09;;;;;;;85.05;23.38;;;;;;;;;;5068438;28;20052;-67
2022/01/13 14:20:39;;;;;;;92.47;23.98;;;;;;;;;;5077645;28;20460;-67
2022/01/13 14:23:06;;;;;;;85.05;23.65;;;;;;;;;;5074309;28;20059;-68
2022/01/13 14:25:34;;;;;;;84.07;24.00;;;;;;;;;;5073900;28;20033;-67
2022/01/13 14:28:05;;;;;;;85.25;23.20;;;;;;;;;;5094275;28;20047;-67
2022/01/13 14:30:33;;;;;;;83.20;23.13;;;;;;;;;;5089979;28;20035;-68
2022/01/13 14:33:12;;;;;;;88.72;23.98;;;;;;;;;;5074088;28;20090;-68
2022/01/13 14:35:38;;;;;;;81.03;24.40;;;;;;;;;;5073603;28;20078;-67
2022/01/13 14:38:10;;;;;;;77.57;23.83;;;;;;;;;;5093017;28;20040;-68
2022/01/13 14:40:46;;;;;;;75.05;23.80;;;;;;;;;;5086545;28;20397;-68
2022/01/13 14:43:20;;;;;;;74.30;22.95;;;;;;;;;;5073539;28;20051;-67
2022/01/13 14:45:47;;;;;;;83.00;25.02;;;;;;;;;;5072495;28;20052;-67
2022/01/13 14:48:14;;;;;;;77.50;24.38;;;;;;;;;;5073812;28;20029;-67
2022/01/13 14:50:40;;;;;;;68.68;23.83;;;;;;;;;;5072753;28;20043;-67